sensor_id;sensor_type;location;lat;lon;timestamp;pressure;altitude;pressure_sealevel;temperature;humidity
40574;BME280;26283;49.020;8.644;2024-03-23T00:52:53;98523.72;;;16.39;60.41
40574;BME280;26283;49.020;8.644;2024-03-23T00:55:19;98503.06;;;16.38;60.42
40574;BME280;26283;49.020;8.644;2024-03-23T00:57:44;98509.56;;;16.37;60.44
40574;BME280;26283;49.020;8.644;2024-03-23T01:00:10;98502.50;;;16.36;60.45
40574;BME280;26283;49.020;8.644;2024-03-23T01:02:36;98505.22;;;16.36;60.46
40574;BME280;26283;49.020;8.644;2024-03-23T01:05:01;98494.34;;;16.36;60.46
40574;BME280;26283;49.020;8.644;2024-03-23T01:07:26;98489.19;;;16.35;60.48
40574;BME280;26283;49.020;8.644;2024-03-23T01:09:52;98491.91;;;16.35;60.50
40574;BME280;26283;49.020;8.644;2024-03-23T01:12:18;98490.00;;;16.35;60.51
40574;BME280;26283;49.020;8.644;2024-03-23T01:14:44;98486.75;;;16.33;60.53
40574;BME280;26283;49.020;8.644;2024-03-23T01:17:09;98484.03;;;16.33;60.54
40574;BME280;26283;49.020;8.644;2024-03-23T01:19:34;98485.09;;;16.32;60.55
40574;BME280;26283;49.020;8.644;2024-03-23T01:22:00;98479.69;;;16.32;60.56
40574;BME280;26283;49.020;8.644;2024-03-23T01:24:25;98465.25;;;16.32;60.58
40574;BME280;26283;49.020;8.644;2024-03-23T01:26:51;98464.44;;;16.31;60.59
40574;BME280;26283;49.020;8.644;2024-03-23T01:29:16;98460.91;;;16.31;60.61
40574;BME280;26283;49.020;8.644;2024-03-23T01:31:41;98467.16;;;16.31;60.63
40574;BME280;26283;49.020;8.644;2024-03-23T01:34:07;98465.81;;;16.29;60.65
40574;BME280;26283;49.020;8.644;2024-03-23T01:36:32;98458.47;;;16.29;60.68
40574;BME280;26283;49.020;8.644;2024-03-23T01:38:58;98461.19;;;16.29;60.70
40574;BME280;26283;49.020;8.644;2024-03-23T01:41:24;98456.03;;;16.28;60.72
40574;BME280;26283;49.020;8.644;2024-03-23T01:43:50;98466.09;;;16.27;60.74
40574;BME280;26283;49.020;8.644;2024-03-23T01:46:16;98474.25;;;16.27;60.77
40574;BME280;26283;49.020;8.644;2024-03-23T01:48:42;98459.00;;;16.26;60.77
40574;BME280;26283;49.020;8.644;2024-03-23T01:51:07;98459.00;;;16.26;60.78
40574;BME280;26283;49.020;8.644;2024-03-23T01:53:33;98459.00;;;16.26;60.79
40574;BME280;26283;49.020;8.644;2024-03-23T01:55:58;98453.84;;;16.25;60.81
40574;BME280;26283;49.020;8.644;2024-03-23T01:58:23;98447.59;;;16.24;60.82
40574;BME280;26283;49.020;8.644;2024-03-23T02:00:49;98447.59;;;16.24;60.82
40574;BME280;26283;49.020;8.644;2024-03-23T02:03:27;98452.25;;;16.24;60.84
40574;BME280;26283;49.020;8.644;2024-03-23T02:05:54;98440.56;;;16.23;60.89
40574;BME280;26283;49.020;8.644;2024-03-23T02:08:20;98437.31;;;16.21;60.87
40574;BME280;26283;49.020;8.644;2024-03-23T02:10:47;98429.97;;;16.22;60.90
40574;BME280;26283;49.020;8.644;2024-03-23T02:13:14;98423.72;;;16.21;60.92
40574;BME280;26283;49.020;8.644;2024-03-23T02:15:39;98423.16;;;16.19;60.95
40574;BME280;26283;49.020;8.644;2024-03-23T02:18:06;98412.84;;;16.21;60.96
40574;BME280;26283;49.020;8.644;2024-03-23T02:20:32;98424.78;;;16.20;60.98
40574;BME280;26283;49.020;8.644;2024-03-23T02:22:57;98428.59;;;16.19;60.99
40574;BME280;26283;49.020;8.644;2024-03-23T02:25:22;98412.28;;;16.19;61.00
40574;BME280;26283;49.020;8.644;2024-03-23T02:27:48;98411.47;;;16.19;61.03
40574;BME280;26283;49.020;8.644;2024-03-23T02:30:13;98413.38;;;16.18;61.05
40574;BME280;26283;49.020;8.644;2024-03-23T02:32:38;98416.37;;;16.17;61.06
40574;BME280;26283;49.020;8.644;2024-03-23T02:35:04;98414.47;;;16.17;61.09
40574;BME280;26283;49.020;8.644;2024-03-23T02:37:30;98414.75;;;16.16;61.12
40574;BME280;26283;49.020;8.644;2024-03-23T02:39:55;98401.97;;;16.16;61.13
40574;BME280;26283;49.020;8.644;2024-03-23T02:42:20;98410.41;;;16.15;61.16
40574;BME280;26283;49.020;8.644;2024-03-23T02:44:46;98404.97;;;16.15;61.19
40574;BME280;26283;49.020;8.644;2024-03-23T02:47:12;98408.50;;;16.15;61.21
40574;BME280;26283;49.020;8.644;2024-03-23T02:49:37;98401.44;;;16.14;61.22
40574;BME280;26283;49.020;8.644;2024-03-23T02:52:03;98394.38;;;16.13;61.24
40574;BME280;26283;49.020;8.644;2024-03-23T02:54:28;98406.03;;;16.14;61.27
40574;BME280;26283;49.020;8.644;2024-03-23T02:56:53;98394.38;;;16.13;61.28
40574;BME280;26283;49.020;8.644;2024-03-23T02:59:19;98384.56;;;16.12;61.31
40574;BME280;26283;49.020;8.644;2024-03-23T03:01:44;98389.19;;;16.11;61.32
40574;BME280;26283;49.020;8.644;2024-03-23T03:04:09;98381.03;;;16.11;61.34
40574;BME280;26283;49.020;8.644;2024-03-23T03:06:35;98386.75;;;16.10;61.36
40574;BME280;26283;49.020;8.644;2024-03-23T03:09:00;98389.47;;;16.10;61.39
40574;BME280;26283;49.020;8.644;2024-03-23T03:11:25;98394.91;;;16.10;61.42
40574;BME280;26283;49.020;8.644;2024-03-23T03:13:51;98392.19;;;16.10;61.42
40574;BME280;26283;49.020;8.644;2024-03-23T03:16:17;98394.38;;;16.08;61.44
40574;BME280;26283;49.020;8.644;2024-03-23T03:18:42;98392.47;;;16.08;61.46
40574;BME280;26283;49.020;8.644;2024-03-23T03:21:08;98395.47;;;16.07;61.49
40574;BME280;26283;49.020;8.644;2024-03-23T03:23:39;98384.59;;;16.07;61.50
40574;BME280;26283;49.020;8.644;2024-03-23T03:26:05;98388.38;;;16.06;61.52
40574;BME280;26283;49.020;8.644;2024-03-23T03:28:31;98382.94;;;16.06;61.52
40574;BME280;26283;49.020;8.644;2024-03-23T03:30:58;98394.63;;;16.06;61.54
40574;BME280;26283;49.020;8.644;2024-03-23T03:33:24;98395.72;;;16.05;61.55
40574;BME280;26283;49.020;8.644;2024-03-23T03:35:49;98397.62;;;16.05;61.55
40574;BME280;26283;49.020;8.644;2024-03-23T03:38:14;98388.66;;;16.04;61.56
40574;BME280;26283;49.020;8.644;2024-03-23T03:40:41;98375.06;;;16.04;61.57
40574;BME280;26283;49.020;8.644;2024-03-23T03:43:07;98370.44;;;16.05;61.58
40574;BME280;26283;49.020;8.644;2024-03-23T03:45:32;98371.53;;;16.04;61.59
40574;BME280;26283;49.020;8.644;2024-03-23T03:47:57;98368.00;;;16.03;61.60
40574;BME280;26283;49.020;8.644;2024-03-23T03:50:24;98378.06;;;16.03;61.61
40574;BME280;26283;49.020;8.644;2024-03-23T03:52:49;98371.81;;;16.02;61.62
40574;BME280;26283;49.020;8.644;2024-03-23T03:55:16;98371.03;;;16.02;61.63
40574;BME280;26283;49.020;8.644;2024-03-23T03:57:41;98363.66;;;16.02;61.64
40574;BME280;26283;49.020;8.644;2024-03-23T04:00:07;98370.22;;;16.01;61.65
40574;BME280;26283;49.020;8.644;2024-03-23T04:02:36;98370.22;;;16.01;61.66
40574;BME280;26283;49.020;8.644;2024-03-23T04:05:02;98373.22;;;16.00;61.67
40574;BME280;26283;49.020;8.644;2024-03-23T04:07:28;98378.66;;;16.00;61.68
40574;BME280;26283;49.020;8.644;2024-03-23T04:09:53;98389.50;;;16.00;61.69
40574;BME280;26283;49.020;8.644;2024-03-23T04:12:19;98389.50;;;16.00;61.69
40574;BME280;26283;49.020;8.644;2024-03-23T04:14:45;98373.22;;;16.00;61.70
40574;BME280;26283;49.020;8.644;2024-03-23T04:17:11;98370.75;;;15.98;61.69
40574;BME280;26283;49.020;8.644;2024-03-23T04:19:36;98359.06;;;15.98;61.71
40574;BME280;26283;49.020;8.644;2024-03-23T04:22:02;98364.50;;;15.98;61.72
40574;BME280;26283;49.020;8.644;2024-03-23T04:24:28;98362.87;;;15.97;61.72
40574;BME280;26283;49.020;8.644;2024-03-23T04:26:54;98362.87;;;15.97;61.72
40574;BME280;26283;49.020;8.644;2024-03-23T04:29:19;98360.97;;;15.97;61.73
40574;BME280;26283;49.020;8.644;2024-03-23T04:31:45;98362.06;;;15.96;61.73
40574;BME280;26283;49.020;8.644;2024-03-23T04:34:11;98368.31;;;15.97;61.74
40574;BME280;26283;49.020;8.644;2024-03-23T04:36:36;98367.50;;;15.96;61.74
40574;BME280;26283;49.020;8.644;2024-03-23T04:39:01;98372.94;;;15.96;61.76
40574;BME280;26283;49.020;8.644;2024-03-23T04:41:27;98375.94;;;15.95;61.75
40574;BME280;26283;49.020;8.644;2024-03-23T04:43:52;98375.13;;;15.94;61.77
40574;BME280;26283;49.020;8.644;2024-03-23T04:46:18;98385.16;;;15.94;61.76
40574;BME280;26283;49.020;8.644;2024-03-23T04:48:43;98394.94;;;15.95;61.78
40574;BME280;26283;49.020;8.644;2024-03-23T04:51:10;98390.59;;;15.94;61.77
40574;BME280;26283;49.020;8.644;2024-03-23T04:53:37;98391.69;;;15.93;61.78
40574;BME280;26283;49.020;8.644;2024-03-23T04:56:03;98394.41;;;15.93;61.78
40574;BME280;26283;49.020;8.644;2024-03-23T04:58:29;98387.06;;;15.93;61.78
40574;BME280;26283;49.020;8.644;2024-03-23T05:00:55;98384.34;;;15.93;61.79
40574;BME280;26283;49.020;8.644;2024-03-23T05:03:21;98405.28;;;15.93;61.79
40574;BME280;26283;49.020;8.644;2024-03-23T05:05:47;98392.78;;;15.92;61.80
40574;BME280;26283;49.020;8.644;2024-03-23T05:08:13;98395.50;;;15.92;61.80
40574;BME280;26283;49.020;8.644;2024-03-23T05:10:39;98398.22;;;15.92;61.80
40574;BME280;26283;49.020;8.644;2024-03-23T05:13:04;98396.59;;;15.91;61.80
40574;BME280;26283;49.020;8.644;2024-03-23T05:15:30;98396.59;;;15.91;61.81
40574;BME280;26283;49.020;8.644;2024-03-23T05:17:55;98407.44;;;15.91;61.81
40574;BME280;26283;49.020;8.644;2024-03-23T05:20:21;98414.78;;;15.90;61.81
40574;BME280;26283;49.020;8.644;2024-03-23T05:22:46;98413.97;;;15.90;61.82
40574;BME280;26283;49.020;8.644;2024-03-23T05:25:12;98413.16;;;15.89;61.83
40574;BME280;26283;49.020;8.644;2024-03-23T05:27:37;98411.25;;;15.90;61.83
40574;BME280;26283;49.020;8.644;2024-03-23T05:30:03;98421.31;;;15.89;61.83
40574;BME280;26283;49.020;8.644;2024-03-23T05:32:31;98425.38;;;15.87;61.84
40574;BME280;26283;49.020;8.644;2024-03-23T05:34:56;98427.81;;;15.88;61.84
40574;BME280;26283;49.020;8.644;2024-03-23T05:37:22;98432.44;;;15.88;61.85
40574;BME280;26283;49.020;8.644;2024-03-23T05:39:48;98433.53;;;15.87;61.85
40574;BME280;26283;49.020;8.644;2024-03-23T05:42:16;98430.81;;;15.87;61.84
40574;BME280;26283;49.020;8.644;2024-03-23T05:44:43;98447.13;;;15.87;61.85
40574;BME280;26283;49.020;8.644;2024-03-23T05:47:09;98455.25;;;15.87;61.84
40574;BME280;26283;49.020;8.644;2024-03-23T05:49:34;98457.97;;;15.87;61.85
40574;BME280;26283;49.020;8.644;2024-03-23T05:52:00;98459.88;;;15.86;61.85
40574;BME280;26283;49.020;8.644;2024-03-23T05:54:27;98462.88;;;15.85;61.85
40574;BME280;26283;49.020;8.644;2024-03-23T05:56:54;98480.78;;;15.86;61.85
40574;BME280;26283;49.020;8.644;2024-03-23T05:59:20;98486.50;;;15.84;61.86
40574;BME280;26283;49.020;8.644;2024-03-23T06:01:47;98491.13;;;15.84;61.85
40574;BME280;26283;49.020;8.644;2024-03-23T06:04:12;98486.78;;;15.83;61.87
40574;BME280;26283;49.020;8.644;2024-03-23T06:06:39;98506.59;;;15.83;61.86
40574;BME280;26283;49.020;8.644;2024-03-23T06:09:04;98496.00;;;15.82;61.86
40574;BME280;26283;49.020;8.644;2024-03-23T06:11:29;98508.50;;;15.83;61.87
40574;BME280;26283;49.020;8.644;2024-03-23T06:13:56;98522.09;;;15.83;61.88
40574;BME280;26283;49.020;8.644;2024-03-23T06:16:21;98536.75;;;15.82;61.87
40574;BME280;26283;49.020;8.644;2024-03-23T06:18:53;98539.47;;;15.82;61.87
40574;BME280;26283;49.020;8.644;2024-03-23T06:21:19;98548.72;;;15.81;61.87
40574;BME280;26283;49.020;8.644;2024-03-23T06:23:45;98553.34;;;15.80;61.86
40574;BME280;26283;49.020;8.644;2024-03-23T06:26:22;98566.94;;;15.80;61.88
40574;BME280;26283;49.020;8.644;2024-03-23T06:28:48;98530.81;;;15.80;61.76
40574;BME280;26283;49.020;8.644;2024-03-23T06:31:13;98533.22;;;15.81;60.60
40574;BME280;26283;49.020;8.644;2024-03-23T06:33:39;98546.81;;;15.81;60.14
40574;BME280;26283;49.020;8.644;2024-03-23T06:36:07;98559.56;;;15.81;59.87
40574;BME280;26283;49.020;8.644;2024-03-23T06:38:33;98559.87;;;15.79;59.77
40574;BME280;26283;49.020;8.644;2024-03-23T06:41:02;98571.00;;;15.77;59.68
40574;BME280;26283;49.020;8.644;2024-03-23T06:43:27;98558.50;;;15.76;59.63
40574;BME280;26283;49.020;8.644;2024-03-23T06:45:56;98573.16;;;15.75;59.57
40574;BME280;26283;49.020;8.644;2024-03-23T06:48:21;98571.81;;;15.73;59.63
40574;BME280;26283;49.020;8.644;2024-03-23T06:50:47;98585.38;;;15.73;59.48
40574;BME280;26283;49.020;8.644;2024-03-23T06:53:14;98586.47;;;15.72;59.55
40574;BME280;26283;49.020;8.644;2024-03-23T06:55:39;98599.22;;;15.71;59.56
40574;BME280;26283;49.020;8.644;2024-03-23T06:58:05;98601.41;;;15.69;59.47
40574;BME280;26283;49.020;8.644;2024-03-23T07:00:31;98615.78;;;15.70;59.49
40574;BME280;26283;49.020;8.644;2024-03-23T07:02:57;98633.19;;;15.69;59.46
40574;BME280;26283;49.020;8.644;2024-03-23T07:05:23;98623.41;;;15.68;59.48
40574;BME280;26283;49.020;8.644;2024-03-23T07:07:51;98615.50;;;15.66;59.43
40574;BME280;26283;49.020;8.644;2024-03-23T07:10:17;98622.03;;;15.65;59.29
40574;BME280;26283;49.020;8.644;2024-03-23T07:12:43;98632.06;;;15.65;59.29
40574;BME280;26283;49.020;8.644;2024-03-23T07:15:08;98637.78;;;15.63;59.30
40574;BME280;26283;49.020;8.644;2024-03-23T07:17:34;98642.38;;;15.63;59.34
40574;BME280;26283;49.020;8.644;2024-03-23T07:20:01;98659.75;;;15.62;59.34
40574;BME280;26283;49.020;8.644;2024-03-23T07:22:31;98653.50;;;15.61;59.33
40574;BME280;26283;49.020;8.644;2024-03-23T07:24:59;98651.06;;;15.60;59.29
40574;BME280;26283;49.020;8.644;2024-03-23T07:27:24;98657.59;;;15.59;59.35
40574;BME280;26283;49.020;8.644;2024-03-23T07:29:51;98666.53;;;15.59;59.37
40574;BME280;26283;49.020;8.644;2024-03-23T07:32:16;98681.22;;;15.58;59.35
40574;BME280;26283;49.020;8.644;2024-03-23T07:34:42;98679.59;;;15.57;59.31
40574;BME280;26283;49.020;8.644;2024-03-23T07:37:10;98679.59;;;15.57;59.40
40574;BME280;26283;49.020;8.644;2024-03-23T07:39:35;98689.63;;;15.57;59.27
40574;BME280;26283;49.020;8.644;2024-03-23T07:42:01;98705.34;;;15.55;59.40
40574;BME280;26283;49.020;8.644;2024-03-23T07:44:26;98705.34;;;15.55;59.45
40574;BME280;26283;49.020;8.644;2024-03-23T07:46:51;98731.94;;;15.53;59.48
40574;BME280;26283;49.020;8.644;2024-03-23T07:49:17;98735.75;;;15.52;59.55
40574;BME280;26283;49.020;8.644;2024-03-23T07:51:43;98749.06;;;15.53;59.65
40574;BME280;26283;49.020;8.644;2024-03-23T07:54:10;98751.22;;;15.51;59.63
40574;BME280;26283;49.020;8.644;2024-03-23T07:56:35;98761.25;;;15.51;59.62
40574;BME280;26283;49.020;8.644;2024-03-23T07:59:00;98760.44;;;15.50;59.59
40574;BME280;26283;49.020;8.644;2024-03-23T08:01:28;98761.50;;;15.49;59.57
40574;BME280;26283;49.020;8.644;2024-03-23T08:03:54;98773.47;;;15.48;59.55
40574;BME280;26283;49.020;8.644;2024-03-23T08:06:20;98784.31;;;15.48;59.47
40574;BME280;26283;49.020;8.644;2024-03-23T08:08:48;98787.28;;;15.47;59.53
40574;BME280;26283;49.020;8.644;2024-03-23T08:11:14;98802.78;;;15.46;59.49
40574;BME280;26283;49.020;8.644;2024-03-23T08:13:41;98801.12;;;15.45;59.51
40574;BME280;26283;49.020;8.644;2024-03-23T08:16:07;98804.91;;;15.44;59.53
40574;BME280;26283;49.020;8.644;2024-03-23T08:18:34;98805.75;;;15.44;59.49
40574;BME280;26283;49.020;8.644;2024-03-23T08:21:01;98804.09;;;15.43;59.38
40574;BME280;26283;49.020;8.644;2024-03-23T08:23:31;98813.31;;;15.42;59.44
40574;BME280;26283;49.020;8.644;2024-03-23T08:26:11;98808.97;;;15.41;59.38
40574;BME280;26283;49.020;8.644;2024-03-23T08:28:38;98816.31;;;15.41;59.31
40574;BME280;26283;49.020;8.644;2024-03-23T08:31:06;98814.66;;;15.40;59.07
40574;BME280;26283;49.020;8.644;2024-03-23T08:33:32;98825.53;;;15.40;59.19
40574;BME280;26283;49.020;8.644;2024-03-23T08:35:59;98821.16;;;15.39;59.09
40574;BME280;26283;49.020;8.644;2024-03-23T08:38:26;98833.09;;;15.38;59.20
40574;BME280;26283;49.020;8.644;2024-03-23T08:41:09;98835.81;;;15.38;59.11
40574;BME280;26283;49.020;8.644;2024-03-23T08:43:39;98830.69;;;15.36;59.40
40574;BME280;26283;49.020;8.644;2024-03-23T08:46:09;98833.41;;;15.36;58.85
40574;BME280;26283;49.020;8.644;2024-03-23T08:48:36;98839.09;;;15.35;58.96
40574;BME280;26283;49.020;8.644;2024-03-23T08:51:06;98847.22;;;15.35;58.92
40574;BME280;26283;49.020;8.644;2024-03-23T08:53:32;98849.13;;;15.34;58.88
40574;BME280;26283;49.020;8.644;2024-03-23T08:55:58;98857.53;;;15.33;58.78
40574;BME280;26283;49.020;8.644;2024-03-23T08:58:25;98852.09;;;15.33;58.84
40574;BME280;26283;49.020;8.644;2024-03-23T09:00:56;98854.25;;;15.31;58.79
40574;BME280;26283;49.020;8.644;2024-03-23T09:03:25;98850.47;;;15.32;58.93
40574;BME280;26283;49.020;8.644;2024-03-23T09:05:54;98853.44;;;15.30;58.62
40574;BME280;26283;49.020;8.644;2024-03-23T09:08:20;98855.59;;;15.28;58.58
40574;BME280;26283;49.020;8.644;2024-03-23T09:10:47;98856.41;;;15.29;58.46
40574;BME280;26283;49.020;8.644;2024-03-23T09:13:12;98861.00;;;15.28;58.59
40574;BME280;26283;49.020;8.644;2024-03-23T09:15:48;98863.97;;;15.27;58.67
40574;BME280;26283;49.020;8.644;2024-03-23T09:18:14;98875.66;;;15.27;58.96
40574;BME280;26283;49.020;8.644;2024-03-23T09:20:39;98862.34;;;15.26;58.95
40574;BME280;26283;49.020;8.644;2024-03-23T09:23:04;98868.59;;;15.26;59.01
40574;BME280;26283;49.020;8.644;2024-03-23T09:25:30;98863.16;;;15.26;59.09
40574;BME280;26283;49.020;8.644;2024-03-23T09:27:55;98881.34;;;15.26;58.82
40574;BME280;26283;49.020;8.644;2024-03-23T09:30:21;98882.41;;;15.25;59.87
40574;BME280;26283;49.020;8.644;2024-03-23T09:32:46;98872.37;;;15.25;59.94
40574;BME280;26283;49.020;8.644;2024-03-23T09:35:12;98884.06;;;15.26;59.92
40574;BME280;26283;49.020;8.644;2024-03-23T09:37:38;98881.34;;;15.26;60.00
40574;BME280;26283;49.020;8.644;2024-03-23T09:40:11;98890.56;;;15.25;60.02
40574;BME280;26283;49.020;8.644;2024-03-23T09:42:37;98879.97;;;15.23;60.06
40574;BME280;26283;49.020;8.644;2024-03-23T09:45:04;98886.78;;;15.26;60.11
40574;BME280;26283;49.020;8.644;2024-03-23T09:47:31;98882.41;;;15.25;60.12
40574;BME280;26283;49.020;8.644;2024-03-23T09:49:57;98884.31;;;15.24;60.14
40574;BME280;26283;49.020;8.644;2024-03-23T09:52:23;98886.22;;;15.24;60.16
40574;BME280;26283;49.020;8.644;2024-03-23T09:54:48;98897.88;;;15.24;60.19
40574;BME280;26283;49.020;8.644;2024-03-23T09:57:13;98899.78;;;15.24;60.16
40574;BME280;26283;49.020;8.644;2024-03-23T09:59:39;98907.94;;;15.24;60.19
40574;BME280;26283;49.020;8.644;2024-03-23T10:02:04;98904.41;;;15.23;60.21
40574;BME280;26283;49.020;8.644;2024-03-23T10:07:14;98914.44;;;15.23;60.30
40574;BME280;26283;49.020;8.644;2024-03-23T10:09:40;98923.41;;;15.23;60.31
40574;BME280;26283;49.020;8.644;2024-03-23T10:12:10;98917.16;;;15.23;60.32
40574;BME280;26283;49.020;8.644;2024-03-23T10:14:36;98951.63;;;15.22;60.35
40574;BME280;26283;49.020;8.644;2024-03-23T10:17:16;98935.31;;;15.22;60.35
40574;BME280;26283;49.020;8.644;2024-03-23T10:19:45;98923.41;;;15.23;60.25
40574;BME280;26283;49.020;8.644;2024-03-23T10:22:20;98926.41;;;15.27;58.83
40574;BME280;26283;49.020;8.644;2024-03-23T10:24:47;98917.44;;;15.26;58.60
40574;BME280;26283;49.020;8.644;2024-03-23T10:27:17;98933.75;;;15.26;58.21
40574;BME280;26283;49.020;8.644;2024-03-23T10:29:47;98928.06;;;15.28;58.28
40574;BME280;26283;49.020;8.644;2024-03-23T10:32:15;98907.69;;;15.25;58.22
40574;BME280;26283;49.020;8.644;2024-03-23T10:34:40;98902.50;;;15.24;58.25
40574;BME280;26283;49.020;8.644;2024-03-23T10:37:06;98895.44;;;15.23;58.10
40574;BME280;26283;49.020;8.644;2024-03-23T10:39:37;98900.84;;;15.23;58.10
40574;BME280;26283;49.020;8.644;2024-03-23T10:42:07;98898.41;;;15.21;58.30
40574;BME280;26283;49.020;8.644;2024-03-23T10:44:34;98908.44;;;15.21;58.26
40574;BME280;26283;49.020;8.644;2024-03-23T10:47:00;98910.34;;;15.20;58.20
40574;BME280;26283;49.020;8.644;2024-03-23T10:49:28;98914.13;;;15.19;58.20
40574;BME280;26283;49.020;8.644;2024-03-23T10:51:56;98915.19;;;15.18;58.24
40574;BME280;26283;49.020;8.644;2024-03-23T10:54:24;98928.75;;;15.18;58.27
40574;BME280;26283;49.020;8.644;2024-03-23T10:56:53;98927.94;;;15.18;58.34
40574;BME280;26283;49.020;8.644;2024-03-23T10:59:20;98920.88;;;15.17;58.34
40574;BME280;26283;49.020;8.644;2024-03-23T11:01:57;98920.06;;;15.16;58.40
40574;BME280;26283;49.020;8.644;2024-03-23T11:04:49;98918.44;;;15.15;58.64
40574;BME280;26283;49.020;8.644;2024-03-23T11:09:52;98917.63;;;15.15;58.65
40574;BME280;26283;49.020;8.644;2024-03-23T11:14:47;98914.09;;;15.14;58.61
40574;BME280;26283;49.020;8.644;2024-03-23T11:17:20;98912.47;;;15.13;58.61
40574;BME280;26283;49.020;8.644;2024-03-23T11:20:05;98904.31;;;15.13;58.57
40574;BME280;26283;49.020;8.644;2024-03-23T11:25:03;98897.25;;;15.12;58.67
40574;BME280;26283;49.020;8.644;2024-03-23T11:27:28;98887.22;;;15.13;58.66
40574;BME280;26283;49.020;8.644;2024-03-23T11:29:54;98907.03;;;15.13;59.78
40574;BME280;26283;49.020;8.644;2024-03-23T11:32:19;98909.75;;;15.18;59.69
40574;BME280;26283;49.020;8.644;2024-03-23T11:34:44;98911.41;;;15.19;59.62
40574;BME280;26283;49.020;8.644;2024-03-23T11:37:10;98918.22;;;15.22;59.55
40574;BME280;26283;49.020;8.644;2024-03-23T11:39:35;98910.34;;;15.20;59.52
40574;BME280;26283;49.020;8.644;2024-03-23T11:42:00;98893.22;;;15.20;59.49
40574;BME280;26283;49.020;8.644;2024-03-23T11:44:26;98901.38;;;15.20;59.49
40574;BME280;26283;49.020;8.644;2024-03-23T11:46:52;98903.25;;;15.19;59.47
40574;BME280;26283;49.020;8.644;2024-03-23T11:51:51;98905.97;;;15.19;59.48
40574;BME280;26283;49.020;8.644;2024-03-23T11:54:20;98896.19;;;15.18;59.47
40574;BME280;26283;49.020;8.644;2024-03-23T11:56:57;98895.37;;;15.18;59.50
40574;BME280;26283;49.020;8.644;2024-03-23T11:59:36;98895.37;;;15.18;59.52
40574;BME280;26283;49.020;8.644;2024-03-23T12:02:13;98890.78;;;15.18;59.53
40574;BME280;26283;49.020;8.644;2024-03-23T12:04:42;98894.56;;;15.17;59.53
40574;BME280;26283;49.020;8.644;2024-03-23T12:07:19;98899.16;;;15.17;59.47
40574;BME280;26283;49.020;8.644;2024-03-23T12:09:45;98896.44;;;15.17;59.49
40574;BME280;26283;49.020;8.644;2024-03-23T12:12:17;98891.84;;;15.17;59.47
40574;BME280;26283;49.020;8.644;2024-03-23T12:15:00;98888.31;;;15.17;59.49
40574;BME280;26283;49.020;8.644;2024-03-23T12:17:26;98882.88;;;15.17;59.50
40574;BME280;26283;49.020;8.644;2024-03-23T12:19:51;98868.50;;;15.16;59.48
40574;BME280;26283;49.020;8.644;2024-03-23T12:22:20;98856.03;;;15.15;59.52
40574;BME280;26283;49.020;8.644;2024-03-23T12:24:46;98842.16;;;15.17;59.53
40574;BME280;26283;49.020;8.644;2024-03-23T12:27:11;98840.53;;;15.16;59.52
40574;BME280;26283;49.020;8.644;2024-03-23T12:29:36;98843.00;;;15.17;59.49
40574;BME280;26283;49.020;8.644;2024-03-23T12:32:04;98820.47;;;15.17;59.42
40574;BME280;26283;49.020;8.644;2024-03-23T12:34:29;98829.41;;;15.17;59.42
40574;BME280;26283;49.020;8.644;2024-03-23T12:36:58;98827.53;;;15.18;59.41
40574;BME280;26283;49.020;8.644;2024-03-23T12:39:23;98840.03;;;15.19;59.40
40574;BME280;26283;49.020;8.644;2024-03-23T12:41:49;98836.47;;;15.18;59.37
40574;BME280;26283;49.020;8.644;2024-03-23T12:44:15;98830.78;;;15.20;59.37
40574;BME280;26283;49.020;8.644;2024-03-23T12:46:41;98830.78;;;15.20;59.37
40574;BME280;26283;49.020;8.644;2024-03-23T12:49:07;98832.44;;;15.21;59.37
40574;BME280;26283;49.020;8.644;2024-03-23T12:51:33;98827.00;;;15.21;59.33
40574;BME280;26283;49.020;8.644;2024-03-23T12:53:59;98839.50;;;15.22;59.33
40574;BME280;26283;49.020;8.644;2024-03-23T12:56:24;98828.66;;;15.22;59.33
40574;BME280;26283;49.020;8.644;2024-03-23T12:58:50;98826.75;;;15.22;59.30
40574;BME280;26283;49.020;8.644;2024-03-23T13:01:17;98839.25;;;15.23;59.31
40574;BME280;26283;49.020;8.644;2024-03-23T13:03:42;98837.34;;;15.24;59.30
40574;BME280;26283;49.020;8.644;2024-03-23T13:06:10;98840.06;;;15.24;59.29
40574;BME280;26283;49.020;8.644;2024-03-23T13:08:35;98840.88;;;15.24;59.29
40574;BME280;26283;49.020;8.644;2024-03-23T13:11:00;98835.47;;;15.24;59.27
40574;BME280;26283;49.020;8.644;2024-03-23T13:13:26;98887.84;;;15.25;59.30
40574;BME280;26283;49.020;8.644;2024-03-23T13:15:51;98900.34;;;15.26;59.32
40574;BME280;26283;49.020;8.644;2024-03-23T13:18:16;98913.09;;;15.25;59.34
40574;BME280;26283;49.020;8.644;2024-03-23T13:20:42;98912.28;;;15.25;59.36
40574;BME280;26283;49.020;8.644;2024-03-23T13:23:07;98904.13;;;15.25;59.40
40574;BME280;26283;49.020;8.644;2024-03-23T13:25:33;98910.63;;;15.24;59.43
40574;BME280;26283;49.020;8.644;2024-03-23T13:27:58;98900.59;;;15.24;59.46
40574;BME280;26283;49.020;8.644;2024-03-23T13:30:24;98870.22;;;15.27;59.25
40574;BME280;26283;49.020;8.644;2024-03-23T13:32:49;98856.72;;;15.32;58.10
40574;BME280;26283;49.020;8.644;2024-03-23T13:35:15;98857.78;;;15.31;57.67
40574;BME280;26283;49.020;8.644;2024-03-23T13:37:41;98846.09;;;15.31;57.39
40574;BME280;26283;49.020;8.644;2024-03-23T13:40:07;98852.63;;;15.30;57.31
40574;BME280;26283;49.020;8.644;2024-03-23T13:42:32;98857.22;;;15.29;57.25
40574;BME280;26283;49.020;8.644;2024-03-23T13:44:58;98850.97;;;15.29;57.25
40574;BME280;26283;49.020;8.644;2024-03-23T13:47:23;98865.63;;;15.28;57.23
40574;BME280;26283;49.020;8.644;2024-03-23T13:49:49;98865.63;;;15.28;57.29
40574;BME280;26283;49.020;8.644;2024-03-23T13:52:14;98852.31;;;15.26;57.23
40574;BME280;26283;49.020;8.644;2024-03-23T13:54:39;98861.28;;;15.27;57.09
40574;BME280;26283;49.020;8.644;2024-03-23T13:57:10;98868.59;;;15.26;57.03
40574;BME280;26283;49.020;8.644;2024-03-23T13:59:36;98887.03;;;15.24;58.83
40574;BME280;26283;49.020;8.644;2024-03-23T14:02:01;98883.56;;;15.29;58.95